createdAt,value
2023-02-16T00:01:45.826Z,21.93
2023-02-16T00:04:21.253Z,23.43
2023-02-16T00:06:49.946Z,21.53
2023-02-16T00:09:18.873Z,20.67
2023-02-16T00:12:06.901Z,21.07
2023-02-16T00:14:38.582Z,21.67
2023-02-16T00:17:07.462Z,23.50
2023-02-16T00:19:37.170Z,25.47
2023-02-16T00:22:06.546Z,24.37
2023-02-16T00:24:35.543Z,24.43
2023-02-16T00:27:03.681Z,24.00
2023-02-16T00:29:34.053Z,24.07
2023-02-16T00:32:06.029Z,24.23
2023-02-16T00:34:35.642Z,28.10
2023-02-16T00:37:05.716Z,25.33
2023-02-16T00:39:34.839Z,26.00
2023-02-16T00:42:30.216Z,26.57
2023-02-16T02:44:32.227Z,25.77
2023-02-16T02:47:00.560Z,26.50
2023-02-16T02:49:28.575Z,25.33
2023-02-16T02:51:56.887Z,25.63
2023-02-16T03:00:17.092Z,26.47
2023-02-16T03:02:48.508Z,27.70
2023-02-16T03:08:15.360Z,25.83
2023-02-16T03:25:52.773Z,26.10
2023-02-16T03:48:46.508Z,25.13
2023-02-16T03:54:06.733Z,30.07
2023-02-16T03:56:34.795Z,26.50
2023-02-16T03:59:02.801Z,27.53
2023-02-16T04:01:31.391Z,26.57
2023-02-16T04:04:00.996Z,28.60
2023-02-16T04:06:29.450Z,27.67
2023-02-16T04:08:57.745Z,27.83
2023-02-16T04:22:08.544Z,27.17
2023-02-16T04:25:01.961Z,27.67
2023-02-16T04:27:30.210Z,26.57
2023-02-16T04:29:58.216Z,27.30
2023-02-16T04:32:26.261Z,29.97
2023-02-16T04:34:54.445Z,27.83
2023-02-16T04:42:57.546Z,28.40
2023-02-16T04:45:26.948Z,29.67
2023-02-16T04:47:54.946Z,26.67
2023-02-16T04:55:47.667Z,28.17
2023-02-16T04:58:15.848Z,28.40
2023-02-16T05:00:45.261Z,29.00
2023-02-16T05:03:13.474Z,28.43
2023-02-16T05:05:41.585Z,27.63
2023-02-16T05:08:09.698Z,29.70
2023-02-16T05:13:36.824Z,28.77
2023-02-16T05:16:06.892Z,27.43
2023-02-16T05:18:34.904Z,28.47
2023-02-16T05:23:58.390Z,29.50
2023-02-16T05:26:26.422Z,29.80
2023-02-16T05:28:54.815Z,29.67
2023-02-16T05:31:25.523Z,28.53
2023-02-16T05:33:53.616Z,28.90
2023-02-16T05:36:23.052Z,29.77
2023-02-16T05:38:51.563Z,29.63
2023-02-16T05:41:24.420Z,30.00
2023-02-16T05:43:53.715Z,28.60
2023-02-16T05:46:22.127Z,30.00
2023-02-16T05:48:51.982Z,31.40
2023-02-16T05:51:20.897Z,28.37
2023-02-16T05:53:48.910Z,29.43
2023-02-16T05:56:17.075Z,28.90
2023-02-16T05:58:45.410Z,29.73
2023-02-16T06:01:15.187Z,31.93
2023-02-16T06:03:43.493Z,30.60
2023-02-16T06:06:13.221Z,30.67
2023-02-16T06:08:41.604Z,28.13
2023-02-16T06:11:30.268Z,30.57
2023-02-16T06:13:59.429Z,30.17
2023-02-16T06:16:28.211Z,29.90
2023-02-16T06:18:56.895Z,30.07
2023-02-16T06:21:29.729Z,30.93
2023-02-16T06:23:57.870Z,28.67
2023-02-16T06:26:26.706Z,28.97
2023-02-16T06:28:55.044Z,27.23
2023-02-16T06:31:23.634Z,30.67
2023-02-16T07:00:31.584Z,26.57
2023-02-16T07:03:14.940Z,26.87
2023-02-16T07:05:44.929Z,28.43
2023-02-16T07:08:12.925Z,27.37
2023-02-16T07:10:50.130Z,27.87
2023-02-16T07:13:18.535Z,26.90
2023-02-16T07:18:57.743Z,28.20
2023-02-16T07:22:03.048Z,29.30
2023-02-16T07:24:32.559Z,28.27
2023-02-16T07:35:28.430Z,27.10
2023-02-16T07:37:56.763Z,27.47
2023-02-16T07:40:26.856Z,27.07
2023-02-16T07:42:57.546Z,27.03
2023-02-16T07:45:25.507Z,27.63
2023-02-16T07:47:53.472Z,26.70
2023-02-16T07:50:21.842Z,28.40
2023-02-16T07:52:49.854Z,25.97
2023-02-16T07:55:17.932Z,29.13
2023-02-16T07:57:49.655Z,27.83
2023-02-16T08:00:18.655Z,27.33
2023-02-16T08:02:48.845Z,26.03
2023-02-16T08:05:17.532Z,27.93
2023-02-16T08:07:46.703Z,27.87
2023-02-16T08:10:15.709Z,27.73
2023-02-16T08:12:44.295Z,26.53
2023-02-16T08:15:13.720Z,28.30
2023-02-16T08:17:41.709Z,27.23
2023-02-16T08:20:10.845Z,25.90
2023-02-16T08:22:38.835Z,28.30
2023-02-16T08:25:07.824Z,27.60
2023-02-16T08:27:40.262Z,28.13
2023-02-16T08:30:12.759Z,26.93
2023-02-16T08:32:42.489Z,26.17
2023-02-16T08:35:11.112Z,28.93
2023-02-16T08:37:39.411Z,27.30
2023-02-16T08:40:10.347Z,28.10
2023-02-16T08:42:38.862Z,26.93
2023-02-16T08:45:07.411Z,27.97
2023-02-16T08:47:36.539Z,26.80
2023-02-16T08:50:07.718Z,26.37
2023-02-16T08:52:35.707Z,27.57
2023-02-16T08:55:03.875Z,27.50
2023-02-16T08:57:34.966Z,28.20
2023-02-16T09:00:21.171Z,27.13
2023-02-16T09:02:50.000Z,27.80
2023-02-16T09:05:19.708Z,27.30
2023-02-16T09:07:48.904Z,27.50
2023-02-16T09:10:17.203Z,25.80
2023-02-16T09:12:48.427Z,28.47
2023-02-16T09:15:17.015Z,27.93
2023-02-16T09:17:45.012Z,27.43
2023-02-16T09:22:49.878Z,27.43
2023-02-16T09:25:18.010Z,27.30
2023-02-16T09:27:45.969Z,27.00
2023-02-16T09:30:15.087Z,27.33
2023-02-16T09:32:43.398Z,28.50
2023-02-16T09:35:11.706Z,27.93
2023-02-16T09:37:39.803Z,29.40
2023-02-16T09:40:13.688Z,28.53
2023-02-16T09:42:55.305Z,29.50
2023-02-16T09:45:26.837Z,27.70
2023-02-16T09:47:56.677Z,27.47
2023-02-16T09:50:52.038Z,29.63
2023-02-16T09:53:23.790Z,28.73
2023-02-16T09:56:03.217Z,26.37
2023-02-16T09:58:40.446Z,28.43
2023-02-16T10:01:17.965Z,29.20
2023-02-16T10:03:56.148Z,27.30
2023-02-16T10:06:49.428Z,27.70
2023-02-16T10:09:19.674Z,28.27
2023-02-16T10:11:54.434Z,28.07
2023-02-16T10:14:35.170Z,29.73
2023-02-16T10:17:12.344Z,29.70
2023-02-16T10:19:44.785Z,29.07
2023-02-16T10:22:17.768Z,29.90
2023-02-16T10:24:54.745Z,28.00
2023-02-16T10:27:24.887Z,28.17
2023-02-16T10:29:53.829Z,27.80
2023-02-16T10:32:29.306Z,29.87
2023-02-16T10:35:06.635Z,30.43
2023-02-16T10:37:47.882Z,30.13
2023-02-16T10:45:44.376Z,29.47
2023-02-16T10:48:13.283Z,29.20
2023-02-16T10:53:20.846Z,30.53
2023-02-16T10:55:48.925Z,28.83
2023-02-16T10:58:22.723Z,28.83
2023-02-16T11:00:59.771Z,27.67
2023-02-16T11:06:16.744Z,29.47
2023-02-16T11:08:50.028Z,30.20
2023-02-16T11:11:20.250Z,29.13
2023-02-16T11:16:45.857Z,30.90
2023-02-16T11:37:07.223Z,31.37
2023-02-16T11:44:57.278Z,31.93
2023-02-16T11:47:28.285Z,29.47
2023-02-16T11:50:18.998Z,31.07
2023-02-16T11:52:49.753Z,31.67
2023-02-16T11:57:54.105Z,32.80
2023-02-16T18:24:37.462Z,29.63
2023-02-16T18:27:08.081Z,30.30
2023-02-16T18:32:13.680Z,30.50
2023-02-16T18:34:43.265Z,30.47
2023-02-16T18:37:12.433Z,29.40
2023-02-16T18:39:48.008Z,33.47
2023-02-16T18:42:17.959Z,30.43
2023-02-16T18:44:48.366Z,31.67
2023-02-16T18:47:16.680Z,31.53
2023-02-16T18:49:45.253Z,32.30
2023-02-16T18:52:13.672Z,33.37
2023-02-16T18:54:44.031Z,32.63
2023-02-16T18:57:12.208Z,31.27
2023-02-16T18:59:40.947Z,34.20
2023-02-16T19:02:09.629Z,30.47
2023-02-16T19:04:39.623Z,31.07
2023-02-16T19:07:08.524Z,29.10
2023-02-16T19:09:37.115Z,31.93
2023-02-16T19:12:07.433Z,30.80
2023-02-16T19:14:55.887Z,31.03
2023-02-16T19:17:24.280Z,30.03
2023-02-16T19:19:53.688Z,31.33
2023-02-16T19:22:23.451Z,30.13
2023-02-16T19:24:52.336Z,28.43
2023-02-16T19:27:23.614Z,29.50
2023-02-16T19:29:53.718Z,31.97
2023-02-16T19:34:57.778Z,31.07
2023-02-16T19:37:25.899Z,31.20
2023-02-16T19:42:31.905Z,31.90
2023-02-16T19:45:00.321Z,34.30
2023-02-16T19:47:34.925Z,34.10
2023-02-16T19:50:04.009Z,35.97
2023-02-16T19:52:32.184Z,34.67
2023-02-16T19:57:50.931Z,34.77
2023-02-16T20:00:20.078Z,37.10
2023-02-16T20:02:48.216Z,34.67
2023-02-16T20:05:16.479Z,38.20
2023-02-16T20:07:44.619Z,35.60
2023-02-16T20:10:12.756Z,38.33
2023-02-16T20:12:40.902Z,36.63
2023-02-16T20:15:13.972Z,38.47
2023-02-16T20:17:42.499Z,35.97
2023-02-16T20:20:11.165Z,37.80
2023-02-16T20:22:39.307Z,40.40
2023-02-16T20:25:08.483Z,39.17
2023-02-16T20:27:38.907Z,36.67
2023-02-16T20:30:09.277Z,39.10
2023-02-16T20:32:39.708Z,40.30
2023-02-16T20:35:08.504Z,40.00
2023-02-16T20:37:36.997Z,42.20
2023-02-16T20:40:10.800Z,41.73
2023-02-16T20:42:39.611Z,39.50
2023-02-16T20:45:08.908Z,41.13
2023-02-16T20:47:38.304Z,42.07
2023-02-16T20:50:08.629Z,41.93
2023-02-16T20:52:37.003Z,42.37
2023-02-16T20:55:06.634Z,41.67
2023-02-16T20:57:39.128Z,42.57
2023-02-16T21:00:13.130Z,43.40
2023-02-16T21:02:43.932Z,41.03
2023-02-16T21:05:13.464Z,41.03
2023-02-16T21:07:42.293Z,39.73
2023-02-16T21:10:12.772Z,41.90
2023-02-16T21:12:41.351Z,42.27
2023-02-16T21:15:10.663Z,42.83
2023-02-16T21:17:41.011Z,42.53
2023-02-16T21:20:11.686Z,41.90
2023-02-16T21:22:40.383Z,44.77
2023-02-16T21:25:11.593Z,40.20
2023-02-16T21:27:41.639Z,41.00
2023-02-16T21:30:11.231Z,43.23
2023-02-16T21:32:39.698Z,42.93
2023-02-16T21:35:08.550Z,39.03
2023-02-16T21:37:38.686Z,45.00
2023-02-16T21:40:26.583Z,43.60
2023-02-16T21:42:56.361Z,42.93
2023-02-16T21:45:24.922Z,42.13
2023-02-16T21:48:11.886Z,47.17
2023-02-16T21:50:42.719Z,43.80
2023-02-16T21:53:12.340Z,45.47
2023-02-16T21:56:07.223Z,44.40
2023-02-16T21:58:36.014Z,44.67
2023-02-16T22:01:04.234Z,41.77
2023-02-16T22:03:33.765Z,43.53
2023-02-16T22:06:03.896Z,45.53
2023-02-16T22:08:37.904Z,43.37
2023-02-16T22:11:09.748Z,40.60
2023-02-16T22:13:38.790Z,41.63
2023-02-16T22:16:12.508Z,41.37
2023-02-16T22:18:43.705Z,39.43
2023-02-16T22:21:13.608Z,39.13
2023-02-16T22:23:43.507Z,38.00
2023-02-16T22:26:24.043Z,38.33
2023-02-16T22:28:52.748Z,39.33
2023-02-16T22:31:23.518Z,36.77
2023-02-16T22:33:57.126Z,38.35
2023-02-16T22:36:25.368Z,38.70
2023-02-16T22:38:55.763Z,36.47
2023-02-16T22:41:25.602Z,36.33
2023-02-16T22:43:55.387Z,36.47
2023-02-16T22:46:25.383Z,37.60
2023-02-16T22:48:54.690Z,35.60
2023-02-16T22:51:23.273Z,38.10
2023-02-16T22:53:51.505Z,38.13
2023-02-16T22:56:21.695Z,36.42
2023-02-16T22:58:50.019Z,33.70
2023-02-16T23:01:21.203Z,33.67
2023-02-16T23:03:52.653Z,33.17
2023-02-16T23:06:23.124Z,32.53
2023-02-16T23:08:54.423Z,32.63
2023-02-16T23:11:25.109Z,31.20
2023-02-16T23:13:53.671Z,32.00
2023-02-16T23:16:24.394Z,30.03
2023-02-16T23:18:54.607Z,30.47
2023-02-16T23:21:28.003Z,29.33
2023-02-16T23:23:56.743Z,28.73
2023-02-16T23:26:29.574Z,26.63
2023-02-16T23:29:00.462Z,26.27
2023-02-16T23:37:20.844Z,24.07
2023-02-16T23:39:49.423Z,23.50
2023-02-16T23:42:19.320Z,22.40
2023-02-16T23:44:49.608Z,23.43
2023-02-16T23:47:18.227Z,21.50
2023-02-16T23:49:46.605Z,20.57
2023-02-16T23:52:15.275Z,21.20
2023-02-16T23:54:43.592Z,20.80
2023-02-16T23:57:12.381Z,19.25
2023-02-16T23:59:43.416Z,18.40
